Time;durP1;ratioP1;P1;durP2;ratioP2;P2;SDS_P1;SDS_P2;PMS_P1;PMS_P2;Temp;Humidity;BMP_temperature;BMP_pressure;BME280_temperature;BME280_humidity;BME280_pressure;Samples;Min_cycle;Max_cycle;Signal;HPM_P1;HPM_P2
2023/02/09 00:01:23;;;;;;;18.80;8.52;;;-3275.30;77.70;;;;;;5085822;28;20040;-72
2023/02/09 00:03:50;;;;;;;15.90;7.80;;;-3275.30;77.80;;;;;;5088489;28;20044;-71
2023/02/09 00:06:20;;;;;;;21.50;9.27;;;-3275.30;77.80;;;;;;5084424;28;20126;-62
2023/02/09 00:08:47;;;;;;;14.18;6.93;;;-3275.30;77.80;;;;;;5086222;28;20664;-62
2023/02/09 00:11:19;;;;;;;15.98;7.60;;;-3275.30;77.70;;;;;;5083328;28;20048;-62
2023/02/09 00:13:51;;;;;;;19.27;8.07;;;-3275.30;77.60;;;;;;5086872;28;20131;-62
2023/02/09 00:16:18;;;;;;;17.73;7.95;;;-3275.30;77.50;;;;;;5064979;28;20471;-60
2023/02/09 00:18:45;;;;;;;21.40;8.50;;;-3275.30;77.50;;;;;;5086153;28;20052;-61
2023/02/09 00:21:13;;;;;;;17.88;8.77;;;-3275.30;77.70;;;;;;5087730;28;20116;-62
2023/02/09 00:23:41;;;;;;;16.10;7.97;;;-3275.30;77.60;;;;;;5088502;28;20051;-62
2023/02/09 00:26:10;;;;;;;21.52;9.48;;;-3275.30;77.60;;;;;;5087513;28;20467;-63
2023/02/09 00:28:39;;;;;;;20.92;9.35;;;-3275.30;77.60;;;;;;5087276;28;20515;-61
2023/02/09 00:31:07;;;;;;;20.30;8.85;;;-3275.30;77.60;;;;;;5087456;28;20047;-61
2023/02/09 00:33:34;;;;;;;19.10;9.02;;;-3275.30;77.30;;;;;;5070580;28;20044;-62
2023/02/09 00:36:04;;;;;;;19.42;9.07;;;-3275.30;77.10;;;;;;5087878;28;20063;-63
2023/02/09 00:38:33;;;;;;;21.90;9.90;;;-3275.30;77.30;;;;;;5067600;28;20093;-65
2023/02/09 00:41:00;;;;;;;21.58;9.75;;;-3275.20;77.40;;;;;;5085834;28;20410;-60
2023/02/09 00:43:27;;;;;;;19.33;9.35;;;-3275.20;77.70;;;;;;5087589;28;20045;-62
2023/02/09 00:45:55;;;;;;;23.33;11.25;;;-3275.20;77.70;;;;;;5088899;28;20044;-72
2023/02/09 00:48:22;;;;;;;21.67;9.48;;;-3275.10;77.70;;;;;;5088000;28;20054;-71
2023/02/09 00:50:50;;;;;;;22.38;9.52;;;-3275.10;77.60;;;;;;5061363;28;20048;-62
2023/02/09 00:53:18;;;;;;;18.35;8.07;;;-3275.10;77.80;;;;;;5069083;28;20101;-63
2023/02/09 00:55:45;;;;;;;21.67;9.13;;;-3275.10;77.70;;;;;;5087141;28;20048;-66
2023/02/09 00:58:12;;;;;;;21.35;9.07;;;-3275.10;77.50;;;;;;5081403;28;20044;-66
2023/02/09 01:00:39;;;;;;;17.60;9.10;;;-3275.10;77.70;;;;;;5080616;28;20068;-71
2023/02/09 01:03:07;;;;;;;22.58;9.23;;;-3275.10;77.60;;;;;;5072735;28;20066;-71
2023/02/09 01:05:38;;;;;;;19.30;8.75;;;-3275.10;77.70;;;;;;5080951;28;20048;-62
2023/02/09 01:08:05;;;;;;;19.05;8.25;;;-3275.00;77.90;;;;;;5081436;28;20040;-62
2023/02/09 01:10:32;;;;;;;18.23;8.43;;;-3275.00;77.90;;;;;;5082826;28;20521;-70
2023/02/09 01:13:03;;;;;;;19.92;8.85;;;-3274.90;78.00;;;;;;5081881;28;20077;-71
2023/02/09 01:15:30;;;;;;;18.02;8.27;;;-3274.90;78.00;;;;;;5080473;28;20036;-60
2023/02/09 01:17:59;;;;;;;21.52;8.77;;;-3274.80;78.10;;;;;;5086164;28;20074;-61
2023/02/09 01:20:27;;;;;;;20.73;8.55;;;-3274.90;78.10;;;;;;5086297;28;20055;-62
2023/02/09 01:22:54;;;;;;;21.15;9.20;;;-3274.90;78.00;;;;;;5084881;28;20422;-63
2023/02/09 01:25:21;;;;;;;19.20;9.50;;;-3274.90;78.00;;;;;;5085053;28;20051;-61
2023/02/09 01:27:48;;;;;;;17.98;9.13;;;-3274.90;78.30;;;;;;5086194;28;20052;-61
2023/02/09 01:30:15;;;;;;;21.83;9.70;;;-3274.80;78.40;;;;;;5087077;28;20055;-62
2023/02/09 01:32:42;;;;;;;23.60;9.85;;;-3274.80;78.30;;;;;;5087343;28;20051;-66
2023/02/09 01:35:10;;;;;;;21.13;9.35;;;-3274.80;78.10;;;;;;5066550;28;20624;-62
2023/02/09 01:37:39;;;;;;;20.73;9.35;;;-3274.80;78.10;;;;;;5087308;28;20066;-64
2023/02/09 01:40:07;;;;;;;20.63;9.43;;;-3274.70;78.20;;;;;;5086253;28;20055;-62
2023/02/09 01:42:35;;;;;;;21.75;8.32;;;-3274.70;78.30;;;;;;5081372;28;20048;-69
2023/02/09 01:45:18;;;;;;;17.58;8.05;;;-3274.80;78.10;;;;;;5085660;28;20101;-70
2023/02/09 01:47:50;;;;;;;19.23;8.57;;;-3274.70;78.30;;;;;;5083147;28;20051;-69
2023/02/09 01:50:18;;;;;;;18.85;8.18;;;-3274.70;78.30;;;;;;5084559;28;20044;-70
2023/02/09 01:52:53;;;;;;;21.10;8.82;;;-3274.70;78.20;;;;;;5082105;28;20094;-69
2023/02/09 01:55:24;;;;;;;19.52;8.68;;;-3274.60;78.20;;;;;;5079291;28;20051;-62
2023/02/09 01:57:53;;;;;;;;;;;-3274.60;78.30;;;;;;5084337;28;20063;-62
2023/02/09 02:00:22;;;;;;;20.90;8.50;;;-3274.60;78.40;;;;;;5084677;28;20460;-62
2023/02/09 02:02:54;;;;;;;17.85;8.65;;;-3274.60;78.40;;;;;;5086969;28;20513;-62
2023/02/09 02:05:24;;;;;;;20.58;9.48;;;-3274.60;78.40;;;;;;5082416;28;20040;-60
2023/02/09 02:08:00;;;;;;;15.83;7.90;;;-3274.60;78.30;;;;;;5084996;28;20085;-61
2023/02/09 02:10:30;;;;;;;18.23;8.68;;;-3274.60;78.50;;;;;;5065776;28;20079;-71
2023/02/09 02:12:57;;;;;;;17.73;9.02;;;-3274.60;78.30;;;;;;5062908;28;20502;-71
2023/02/09 02:15:29;;;;;;;18.83;8.35;;;-3274.60;78.30;;;;;;5083439;28;20044;-72
2023/02/09 02:18:14;;;;;;;16.33;8.40;;;-3274.50;78.30;;;;;;5063972;28;20060;-71
2023/02/09 02:21:03;;;;;;;20.02;8.82;;;-3274.50;78.50;;;;;;5065856;28;20047;-72
2023/02/09 02:23:42;;;;;;;20.65;9.35;;;-3274.50;78.50;;;;;;5084317;28;20440;-71
2023/02/09 02:26:35;;;;;;;19.60;8.90;;;-3274.50;78.50;;;;;;5085980;28;20101;-64
2023/02/09 02:29:28;;;;;;;19.15;8.32;;;-3274.50;78.60;;;;;;5085144;28;20812;-63
2023/02/09 02:32:25;;;;;;;18.45;8.48;;;-3274.50;78.30;;;;;;5080842;28;20040;-61
2023/02/09 02:34:58;;;;;;;19.58;8.88;;;-3274.50;78.30;;;;;;5083629;28;21491;-61
2023/02/09 02:37:41;;;;;;;20.98;8.73;;;-3274.60;78.30;;;;;;5084305;28;20049;-60
2023/02/09 02:40:17;;;;;;;18.05;8.50;;;-3274.50;78.30;;;;;;5081365;28;20051;-62
2023/02/09 02:42:50;;;;;;;25.42;9.57;;;-3274.40;78.40;;;;;;5080142;28;20067;-61
2023/02/09 02:45:28;;;;;;;22.27;9.82;;;-3274.50;78.40;;;;;;5082798;28;20055;-60
2023/02/09 02:48:02;;;;;;;22.52;9.13;;;-3274.40;78.30;;;;;;5085821;28;20051;-61
2023/02/09 02:50:32;;;;;;;22.00;8.30;;;-3274.40;78.50;;;;;;5083477;28;20429;-69
2023/02/09 02:53:03;;;;;;;20.63;9.05;;;-3274.40;78.60;;;;;;5083819;28;20051;-67
2023/02/09 02:55:32;;;;;;;19.27;8.27;;;-3274.40;78.60;;;;;;5085072;28;20048;-62
2023/02/09 02:58:03;;;;;;;20.20;9.73;;;-3274.40;78.50;;;;;;5085000;28;20055;-62
2023/02/09 03:00:34;;;;;;;18.48;9.35;;;-3274.30;78.70;;;;;;5084334;28;20506;-61
2023/02/09 03:03:05;;;;;;;;;;;-3274.30;78.70;;;;;;5084831;28;22990;-61
2023/02/09 03:05:32;;;;;;;19.48;8.77;;;-3274.30;78.60;;;;;;5087832;28;20306;-69
2023/02/09 03:07:59;;;;;;;18.58;7.97;;;-3274.30;78.70;;;;;;5090848;28;20044;-67
2023/02/09 03:10:29;;;;;;;21.35;9.13;;;-3274.20;78.70;;;;;;5088774;28;20048;-62
2023/02/09 03:13:18;;;;;;;21.30;9.10;;;-3274.30;78.60;;;;;;5085122;28;20052;-62
2023/02/09 03:15:58;;;;;;;18.77;9.13;;;-3274.30;78.50;;;;;;5087107;28;20066;-63
2023/02/09 03:18:35;;;;;;;20.85;8.82;;;-3274.20;78.50;;;;;;5089214;28;20044;-62
2023/02/09 03:21:09;;;;;;;18.27;8.88;;;-3274.20;78.40;;;;;;5086638;28;20048;-61
2023/02/09 03:23:45;;;;;;;21.38;9.52;;;-3274.20;78.50;;;;;;5072593;28;20051;-61
2023/02/09 03:26:15;;;;;;;17.42;9.15;;;-3274.20;78.70;;;;;;5089630;28;20078;-61
2023/02/09 03:28:45;;;;;;;24.42;9.98;;;-3274.10;78.70;;;;;;5090585;28;20052;-61
2023/02/09 03:31:13;;;;;;;21.88;8.85;;;-3274.20;78.70;;;;;;5090025;28;20106;-68
2023/02/09 03:33:41;;;;;;;20.63;8.93;;;-3274.10;78.50;;;;;;5091378;28;20055;-68
2023/02/09 03:36:13;;;;;;;19.75;8.13;;;-3274.10;78.80;;;;;;5088726;28;20056;-62
2023/02/09 03:38:40;;;;;;;20.20;9.02;;;-3274.10;78.60;;;;;;5088481;28;20082;-61
2023/02/09 03:41:07;;;;;;;17.85;8.25;;;-3274.00;78.90;;;;;;5091275;28;20414;-62
2023/02/09 03:46:20;;;;;;;17.98;8.57;;;-3274.00;78.80;;;;;;5088285;28;20048;-68
2023/02/09 03:48:49;;;;;;;20.75;9.10;;;-3274.10;78.70;;;;;;5090873;28;20490;-68
2023/02/09 03:51:16;;;;;;;18.60;9.70;;;-3274.00;78.80;;;;;;5090004;28;20044;-61
2023/02/09 03:53:43;;;;;;;19.33;9.13;;;-3274.10;78.80;;;;;;5090357;28;20048;-61
2023/02/09 03:56:10;;;;;;;22.60;8.77;;;-3274.00;78.80;;;;;;5088177;28;20055;-67
2023/02/09 03:58:37;;;;;;;17.25;8.57;;;-3274.00;78.80;;;;;;5089578;28;20475;-67
2023/02/09 04:01:06;;;;;;;22.25;9.77;;;-3273.90;78.90;;;;;;5089362;28;20044;-63
2023/02/09 04:03:33;;;;;;;20.60;9.00;;;-3273.90;79.00;;;;;;5087778;28;20044;-62
2023/02/09 04:06:02;;;;;;;17.25;8.20;;;-3273.90;78.90;;;;;;5090126;28;20047;-61
2023/02/09 04:08:29;;;;;;;21.05;9.63;;;-3273.90;78.80;;;;;;5090223;28;20052;-61
2023/02/09 04:10:57;;;;;;;21.50;9.38;;;-3274.00;78.90;;;;;;5088593;28;20490;-61
2023/02/09 04:13:24;;;;;;;18.90;9.43;;;-3273.90;78.90;;;;;;5085979;28;20137;-61
2023/02/09 04:15:51;;;;;;;21.70;9.15;;;-3273.90;78.90;;;;;;5085147;28;20044;-64
2023/02/09 04:18:18;;;;;;;20.42;9.43;;;-3273.90;79.00;;;;;;5087858;28;20048;-65
2023/02/09 04:20:45;;;;;;;19.30;9.35;;;-3273.90;78.90;;;;;;5086584;28;20097;-61
2023/02/09 04:23:14;;;;;;;19.58;8.52;;;-3273.90;78.90;;;;;;5085616;28;20063;-63
2023/02/09 04:25:40;;;;;;;20.50;8.95;;;-3273.90;79.00;;;;;;5085888;28;20553;-73
2023/02/09 04:28:07;;;;;;;21.00;9.35;;;-3273.80;78.90;;;;;;5084491;28;20047;-73
2023/02/09 04:30:34;;;;;;;20.17;8.75;;;-3273.70;79.00;;;;;;5087842;28;20097;-72
2023/02/09 04:33:01;;;;;;;21.27;9.50;;;-3273.70;79.20;;;;;;5089243;28;20105;-70
2023/02/09 04:35:28;;;;;;;20.85;9.27;;;-3273.70;79.30;;;;;;5088140;28;20529;-61
2023/02/09 04:37:55;;;;;;;21.90;9.25;;;-3273.70;79.40;;;;;;5088677;28;20055;-62
2023/02/09 04:40:23;;;;;;;18.80;8.68;;;-3273.70;79.40;;;;;;5085900;28;20116;-65
2023/02/09 04:42:50;;;;;;;20.00;8.95;;;-3273.70;79.50;;;;;;5085226;28;20498;-69
2023/02/09 04:45:16;;;;;;;18.20;8.57;;;-3273.70;79.30;;;;;;5083783;28;20498;-68
2023/02/09 04:47:43;;;;;;;21.75;9.23;;;-3273.70;79.20;;;;;;5086426;28;20055;-66
2023/02/09 04:50:10;;;;;;;19.73;8.38;;;-3273.70;79.30;;;;;;5084948;28;20093;-68
2023/02/09 04:52:37;;;;;;;19.65;8.93;;;-3273.70;79.10;;;;;;5087810;28;20064;-71
2023/02/09 04:55:05;;;;;;;16.67;8.18;;;-3273.60;79.40;;;;;;5086736;28;20051;-72
2023/02/09 05:00:18;;;;;;;19.58;9.23;;;-3273.60;79.60;;;;;;5084146;28;20055;-64
2023/02/09 05:02:45;;;;;;;22.25;9.90;;;-3273.70;79.40;;;;;;5086929;28;20051;-65
2023/02/09 05:05:12;;;;;;;19.15;8.65;;;-3273.60;79.40;;;;;;5084111;28;20044;-65
2023/02/09 05:07:39;;;;;;;25.40;10.77;;;-3273.60;79.60;;;;;;5083536;28;20052;-63
2023/02/09 05:10:07;;;;;;;19.80;9.48;;;-3273.60;79.70;;;;;;5085619;28;20558;-62
2023/02/09 05:12:35;;;;;;;19.75;8.43;;;-3273.60;79.60;;;;;;5086689;28;20047;-72
2023/02/09 05:15:02;;;;;;;19.02;8.95;;;-3273.60;79.50;;;;;;5083846;28;20061;-73
2023/02/09 05:17:31;;;;;;;27.73;10.38;;;-3273.60;79.50;;;;;;5083937;28;20371;-65
2023/02/09 05:19:58;;;;;;;20.27;9.30;;;-3273.60;79.60;;;;;;5086791;28;20048;-66
2023/02/09 05:22:25;;;;;;;20.75;8.93;;;-3273.50;79.60;;;;;;5087453;28;20044;-71
2023/02/09 05:24:52;;;;;;;22.55;9.27;;;-3273.60;79.50;;;;;;5086556;28;20583;-72
2023/02/09 05:27:19;;;;;;;23.15;9.63;;;-3273.50;79.50;;;;;;5085108;28;20055;-71
2023/02/09 05:29:47;;;;;;;20.23;8.45;;;-3273.50;79.50;;;;;;5087443;28;20051;-71
2023/02/09 05:32:14;;;;;;;21.85;9.68;;;-3273.60;79.40;;;;;;5083237;28;20075;-62
2023/02/09 05:34:41;;;;;;;19.08;9.30;;;-3273.50;79.40;;;;;;5086118;28;20047;-62
2023/02/09 05:37:08;;;;;;;20.05;9.50;;;-3273.50;79.40;;;;;;5084545;28;20052;-72
2023/02/09 05:39:34;;;;;;;19.92;9.55;;;-3273.50;79.50;;;;;;5085515;28;20111;-72
2023/02/09 05:42:16;;;;;;;21.15;9.50;;;-3273.50;79.50;;;;;;5082421;28;20121;-69
2023/02/09 05:44:44;;;;;;;20.52;8.85;;;-3273.40;79.60;;;;;;5085676;28;20412;-67
2023/02/09 05:47:14;;;;;;;18.73;8.95;;;-3273.40;79.60;;;;;;5085501;28;20048;-63
2023/02/09 05:49:41;;;;;;;20.65;9.30;;;-3273.40;79.80;;;;;;5085159;28;20042;-61
2023/02/09 05:52:09;;;;;;;22.98;9.30;;;-3273.40;79.60;;;;;;5084849;28;20059;-62
2023/02/09 05:54:36;;;;;;;20.90;8.77;;;-3273.40;79.50;;;;;;5086467;28;20048;-62
2023/02/09 05:57:04;;;;;;;21.92;10.15;;;-3273.40;79.60;;;;;;5078901;28;20059;-72
2023/02/09 05:59:30;;;;;;;21.25;9.23;;;-3273.40;79.50;;;;;;5063171;28;20080;-72
2023/02/09 06:01:58;;;;;;;23.73;9.77;;;-3273.40;79.20;;;;;;5082884;28;20063;-66
2023/02/09 06:04:27;;;;;;;22.88;9.65;;;-3273.40;79.40;;;;;;5080038;28;20051;-66
2023/02/09 06:06:54;;;;;;;21.95;10.27;;;-3273.40;79.50;;;;;;5082896;28;20062;-64
2023/02/09 06:09:22;;;;;;;22.90;9.63;;;-3273.40;79.50;;;;;;5084890;28;20040;-64
2023/02/09 06:11:49;;;;;;;23.50;9.52;;;-3273.40;79.50;;;;;;5083100;28;20059;-61
2023/02/09 06:14:17;;;;;;;23.58;10.18;;;-3273.40;79.60;;;;;;5080130;28;20063;-63
2023/02/09 06:16:44;;;;;;;21.23;9.85;;;-3273.30;79.50;;;;;;5084969;28;20468;-64
2023/02/09 06:19:13;;;;;;;20.40;9.07;;;-3273.30;79.70;;;;;;5084922;28;20048;-64
2023/02/09 06:21:41;;;;;;;24.50;10.77;;;-3273.40;79.50;;;;;;5085563;28;20040;-72
2023/02/09 06:24:08;;;;;;;22.45;10.18;;;-3273.30;79.50;;;;;;5085511;28;20040;-71
2023/02/09 06:26:35;;;;;;;24.02;10.20;;;-3273.30;79.50;;;;;;5085874;28;20044;-67
2023/02/09 06:29:02;;;;;;;21.67;9.25;;;-3273.30;79.50;;;;;;5085708;28;20039;-68
2023/02/09 06:31:29;;;;;;;22.85;10.05;;;-3273.30;79.40;;;;;;5081843;28;20044;-62
2023/02/09 06:33:56;;;;;;;22.40;9.23;;;-3273.30;79.60;;;;;;5084113;28;20060;-61
2023/02/09 06:36:23;;;;;;;21.65;9.85;;;-3273.20;79.60;;;;;;5084534;28;20044;-61
2023/02/09 06:38:51;;;;;;;23.40;9.75;;;-3273.20;79.80;;;;;;5084835;28;20127;-61
2023/02/09 06:41:18;;;;;;;16.98;8.60;;;-3273.30;79.90;;;;;;5083221;28;20414;-70
2023/02/09 06:43:45;;;;;;;18.27;8.40;;;-3273.30;79.70;;;;;;5083439;28;20051;-71
2023/02/09 06:46:13;;;;;;;20.85;8.70;;;-3273.30;79.80;;;;;;5083648;28;20051;-61
2023/02/09 06:48:40;;;;;;;18.75;8.40;;;-3273.40;79.80;;;;;;5081674;28;20051;-62
2023/02/09 06:51:08;;;;;;;26.38;9.60;;;-3273.30;79.90;;;;;;5084241;28;20044;-72
2023/02/09 06:53:36;;;;;;;20.38;8.38;;;-3273.30;79.90;;;;;;5078600;28;20067;-70
2023/02/09 06:56:04;;;;;;;20.38;8.63;;;-3273.40;79.80;;;;;;5084936;28;20093;-62
2023/02/09 06:58:31;;;;;;;19.67;8.45;;;-3273.50;79.60;;;;;;5085718;28;20491;-61
2023/02/09 07:01:02;;;;;;;19.70;8.80;;;-3273.40;79.70;;;;;;5084469;28;20044;-60
2023/02/09 07:03:29;;;;;;;19.30;9.23;;;-3273.50;79.70;;;;;;5084867;28;20081;-61
2023/02/09 07:06:01;;;;;;;21.35;9.00;;;-3273.40;79.70;;;;;;5083434;28;20051;-61
2023/02/09 07:08:28;;;;;;;20.33;8.77;;;-3273.40;79.80;;;;;;5086633;28;20050;-61
2023/02/09 07:10:55;;;;;;;24.80;9.38;;;-3273.40;79.90;;;;;;5085177;28;20042;-61
2023/02/09 07:13:23;;;;;;;22.98;9.45;;;-3273.30;79.90;;;;;;5084364;28;20040;-63
2023/02/09 07:15:55;;;;;;;22.17;9.38;;;-3273.30;80.10;;;;;;5063549;28;20048;-62
2023/02/09 07:18:22;;;;;;;22.88;9.88;;;-3273.40;80.00;;;;;;5087516;28;20059;-62
2023/02/09 07:20:54;;;;;;;20.45;9.20;;;-3273.40;79.90;;;;;;5085987;28;20047;-60
2023/02/09 07:23:20;;;;;;;18.55;9.05;;;-3273.40;80.10;;;;;;5084930;28;20048;-60
2023/02/09 07:25:47;;;;;;;23.50;10.10;;;-3273.40;80.00;;;;;;5085377;28;20055;-71
2023/02/09 07:28:15;;;;;;;22.73;9.82;;;-3273.40;80.00;;;;;;5064854;28;20138;-72
2023/02/09 07:30:43;;;;;;;21.05;9.27;;;-3273.30;80.10;;;;;;5085397;28;20115;-62
2023/02/09 07:33:10;;;;;;;21.48;9.30;;;-3273.40;80.00;;;;;;5086033;28;20058;-62
2023/02/09 07:35:40;;;;;;;22.52;9.38;;;-3273.40;80.00;;;;;;5085414;28;20055;-62
2023/02/09 07:38:07;;;;;;;22.17;8.80;;;-3273.40;80.20;;;;;;5082897;28;20072;-62
2023/02/09 07:40:33;;;;;;;19.63;8.43;;;-3273.40;80.30;;;;;;5081621;28;20040;-61
2023/02/09 07:43:00;;;;;;;18.23;9.00;;;-3273.50;80.10;;;;;;5082218;28;20091;-63
2023/02/09 07:45:27;;;;;;;21.73;9.20;;;-3273.50;80.20;;;;;;5084946;28;20490;-60
2023/02/09 07:47:56;;;;;;;21.10;9.43;;;-3273.50;80.10;;;;;;5082898;28;20043;-60
2023/02/09 07:50:23;;;;;;;22.38;9.18;;;-3273.50;80.20;;;;;;5086072;28;20048;-66
2023/02/09 07:52:52;;;;;;;18.38;9.48;;;-3273.60;80.20;;;;;;5090496;28;20109;-69
2023/02/09 07:55:19;;;;;;;20.55;9.63;;;-3273.60;80.10;;;;;;5081450;28;20044;-68
2023/02/09 07:57:46;;;;;;;16.27;8.52;;;-3273.60;80.10;;;;;;5083119;28;20036;-68
2023/02/09 08:00:14;;;;;;;22.17;10.15;;;-3273.60;80.20;;;;;;5088324;28;20052;-66
2023/02/09 08:02:45;;;;;;;17.70;8.77;;;-3273.60;80.20;;;;;;5088060;28;20051;-68
2023/02/09 08:05:20;;;;;;;19.80;9.13;;;-3273.60;80.10;;;;;;5087150;28;20055;-67
2023/02/09 08:07:47;;;;;;;17.63;9.32;;;-3273.70;80.10;;;;;;5088284;28;20052;-67
2023/02/09 08:10:15;;;;;;;22.40;7.85;;;-3273.70;80.20;;;;;;5084842;28;20517;-69
2023/02/09 08:13:01;;;;;;;17.83;8.60;;;-3273.80;79.90;;;;;;5085424;28;20055;-71
2023/02/09 08:15:32;;;;;;;19.13;8.70;;;-3273.80;79.90;;;;;;5086404;28;20129;-61
2023/02/09 08:18:02;;;;;;;22.85;10.27;;;-3273.80;80.10;;;;;;5087940;28;20048;-61
2023/02/09 08:20:31;;;;;;;19.10;9.20;;;-3273.80;80.20;;;;;;5088292;28;20052;-68
2023/02/09 08:23:05;;;;;;;22.92;8.82;;;-3273.90;80.00;;;;;;5088565;28;20051;-66
2023/02/09 08:25:32;;;;;;;24.05;10.45;;;-3274.00;79.80;;;;;;5085606;28;20048;-61
2023/02/09 08:27:59;;;;;;;24.30;10.68;;;-3274.00;79.80;;;;;;5085631;28;20565;-60
2023/02/09 08:30:26;;;;;;;19.33;9.32;;;-3274.00;80.20;;;;;;5084794;28;20040;-60
2023/02/09 08:32:53;;;;;;;21.00;9.48;;;-3274.10;80.00;;;;;;5089574;28;20502;-62
2023/02/09 08:35:20;;;;;;;19.35;9.80;;;-3274.20;79.80;;;;;;5084696;28;20398;-62
2023/02/09 08:37:48;;;;;;;26.33;9.90;;;-3274.20;79.90;;;;;;5087999;28;20051;-61
2023/02/09 08:40:15;;;;;;;23.20;9.18;;;-3274.20;79.90;;;;;;5085960;28;20417;-61
2023/02/09 08:42:42;;;;;;;18.13;9.90;;;-3274.30;79.70;;;;;;5085805;28;20086;-71
2023/02/09 08:45:09;;;;;;;20.80;9.15;;;-3274.30;79.90;;;;;;5087522;28;20040;-72
2023/02/09 08:47:37;;;;;;;17.50;8.38;;;-3274.40;79.90;;;;;;5084828;28;20052;-62
2023/02/09 08:50:05;;;;;;;20.35;8.95;;;-3274.40;79.60;;;;;;5089664;28;20131;-63
2023/02/09 08:52:31;;;;;;;20.00;8.85;;;-3274.50;79.50;;;;;;5085450;28;20394;-72
2023/02/09 08:55:00;;;;;;;16.83;7.93;;;-3274.50;79.50;;;;;;5088390;28;20102;-72
2023/02/09 08:57:27;;;;;;;19.27;8.15;;;-3274.60;79.50;;;;;;5086131;28;20440;-62
2023/02/09 08:59:54;;;;;;;17.30;8.50;;;-3274.60;79.40;;;;;;5085484;28;20047;-60
2023/02/09 09:02:21;;;;;;;15.65;7.28;;;-3274.60;79.40;;;;;;5084015;28;20440;-68
2023/02/09 09:04:49;;;;;;;16.63;7.53;;;-3274.70;79.40;;;;;;5077549;28;20059;-68
2023/02/09 09:07:15;;;;;;;18.20;7.90;;;-3274.70;79.40;;;;;;5084253;28;20052;-65
2023/02/09 09:09:43;;;;;;;15.07;7.30;;;-3274.80;79.50;;;;;;5084287;28;20048;-65
2023/02/09 09:12:11;;;;;;;15.57;7.65;;;-3274.80;79.50;;;;;;5089784;28;20914;-60
2023/02/09 09:14:38;;;;;;;20.35;8.25;;;-3274.80;79.40;;;;;;5086406;28;20048;-59
2023/02/09 09:17:05;;;;;;;14.35;6.43;;;-3274.90;79.40;;;;;;5083277;28;20063;-62
2023/02/09 09:19:31;;;;;;;17.45;7.35;;;-3275.00;79.40;;;;;;5084733;28;20056;-63
2023/02/09 09:21:59;;;;;;;14.57;6.45;;;-3275.10;79.40;;;;;;5086926;28;20548;-62
2023/02/09 09:24:27;;;;;;;15.45;6.88;;;-3275.20;79.40;;;;;;5085927;28;20395;-62
2023/02/09 09:26:54;;;;;;;14.77;6.82;;;-3275.20;79.70;;;;;;5086252;28;20075;-71
2023/02/09 09:29:23;;;;;;;15.18;6.93;;;-3275.20;79.50;;;;;;5084972;28;20557;-71
2023/02/09 09:31:50;;;;;;;13.75;6.82;;;-3275.30;79.20;;;;;;5083114;28;20044;-71
2023/02/09 09:34:17;;;;;;;15.45;7.18;;;-3275.40;79.30;;;;;;5086848;28;20071;-72
2023/02/09 09:36:44;;;;;;;17.70;7.47;;;-3275.50;79.00;;;;;;5084340;28;20065;-71
2023/02/09 09:39:11;;;;;;;15.13;6.72;;;-3275.60;78.80;;;;;;5084374;28;20046;-71
2023/02/09 09:41:38;;;;;;;16.17;7.10;;;-3275.60;78.90;;;;;;5087836;28;20047;-65
2023/02/09 09:44:13;;;;;;;14.27;7.00;;;-3275.60;78.70;;;;;;5085271;28;20510;-66
2023/02/09 09:46:44;;;;;;;14.43;6.50;;;-3275.70;78.80;;;;;;5082641;28;20055;-67
2023/02/09 09:49:21;;;;;;;15.75;6.93;;;-3275.80;78.50;;;;;;5084428;28;20052;-67
2023/02/09 09:51:51;;;;;;;15.88;7.00;;;-3275.90;78.70;;;;;;5084450;28;20052;-66
2023/02/09 09:54:21;;;;;;;13.88;6.60;;;-3276.00;78.90;;;;;;5086908;28;20051;-67
2023/02/09 09:56:49;;;;;;;17.85;6.88;;;-3276.00;78.50;;;;;;5085563;28;20052;-66
2023/02/09 09:59:20;;;;;;;15.25;7.25;;;-3276.10;78.40;;;;;;5082796;28;20043;-67
2023/02/09 10:01:51;;;;;;;16.85;7.32;;;-3276.20;78.10;;;;;;5083597;28;20043;-70
2023/02/09 10:04:19;;;;;;;14.35;6.57;;;-3276.30;77.30;;;;;;5085038;28;20127;-72
2023/02/09 10:06:51;;;;;;;15.27;7.55;;;-3276.40;77.60;;;;;;5084304;28;20421;-61
2023/02/09 10:09:28;;;;;;;17.88;7.72;;;-3276.50;77.90;;;;;;5087667;28;20044;-61
2023/02/09 10:12:04;;;;;;;15.98;7.28;;;-3276.60;77.50;;;;;;5084307;28;20120;-62
2023/02/09 10:14:31;;;;;;;15.25;7.70;;;-3276.60;77.10;;;;;;5058572;28;20423;-62
2023/02/09 10:16:59;;;;;;;13.55;6.50;;;-3276.70;77.00;;;;;;5086202;28;20513;-64
2023/02/09 10:19:28;;;;;;;16.40;7.03;;;0.00;76.40;;;;;;5086252;28;20050;-65
2023/02/09 10:21:55;;;;;;;14.68;7.13;;;0.00;77.10;;;;;;5079169;28;20046;-66
2023/02/09 10:24:24;;;;;;;14.95;7.70;;;0.00;77.10;;;;;;5080156;28;20402;-65
2023/02/09 10:27:24;;;;;;;18.08;7.85;;;0.10;76.80;;;;;;5087248;28;20057;-71
2023/02/09 10:29:51;;;;;;;13.80;6.30;;;0.20;76.40;;;;;;5039043;28;20066;-72
2023/02/09 10:32:21;;;;;;;14.68;7.35;;;0.30;76.10;;;;;;5083704;28;20462;-61
2023/02/09 10:34:50;;;;;;;16.25;7.15;;;0.30;75.90;;;;;;5085159;28;20085;-62
2023/02/09 10:37:26;;;;;;;13.43;6.28;;;0.40;76.40;;;;;;5082698;28;20043;-64
2023/02/09 10:40:07;;;;;;;16.02;7.25;;;0.40;76.00;;;;;;5080557;28;20048;-66
2023/02/09 10:42:36;;;;;;;15.45;7.55;;;0.50;76.10;;;;;;5082284;28;20047;-63
2023/02/09 10:45:12;;;;;;;13.88;6.43;;;0.60;76.50;;;;;;5086273;28;20103;-62
2023/02/09 10:47:40;;;;;;;16.80;6.97;;;0.60;75.50;;;;;;5082492;28;20066;-63
2023/02/09 10:50:17;;;;;;;13.18;7.03;;;0.70;75.70;;;;;;5085176;28;20044;-61
2023/02/09 10:52:55;;;;;;;15.25;7.40;;;0.70;75.10;;;;;;5083452;28;20212;-62
2023/02/09 10:55:27;;;;;;;15.77;7.18;;;0.80;75.00;;;;;;5084891;28;20052;-62
2023/02/09 10:58:06;;;;;;;15.02;7.45;;;0.80;75.00;;;;;;5084457;28;20052;-62
2023/02/09 11:00:38;;;;;;;16.23;8.32;;;0.80;75.50;;;;;;5085855;28;20056;-66
2023/02/09 11:03:16;;;;;;;15.70;7.15;;;0.90;74.80;;;;;;5084608;28;20052;-65
2023/02/09 11:05:46;;;;;;;16.08;7.70;;;1.00;74.40;;;;;;5084144;28;20075;-67
2023/02/09 11:08:17;;;;;;;17.85;7.78;;;1.00;74.40;;;;;;5083558;28;20048;-67
2023/02/09 11:10:54;;;;;;;15.05;7.32;;;1.00;73.90;;;;;;5082634;28;20048;-72
2023/02/09 11:13:23;;;;;;;16.27;8.65;;;1.10;73.90;;;;;;5083747;28;20050;-70
2023/02/09 11:16:25;;;;;;;13.10;6.47;;;1.10;74.70;;;;;;5052873;28;20044;-67
2023/02/09 11:19:00;;;;;;;13.60;7.18;;;1.10;74.60;;;;;;5083143;28;20050;-67
2023/02/09 11:21:39;;;;;;;15.57;7.78;;;1.20;74.70;;;;;;5083814;28;20071;-66
2023/02/09 11:24:10;;;;;;;15.15;7.75;;;1.20;74.80;;;;;;5060695;28;20406;-66
2023/02/09 11:26:46;;;;;;;16.77;8.02;;;1.30;74.60;;;;;;5090226;28;20044;-73
2023/02/09 11:29:22;;;;;;;16.50;7.88;;;1.30;74.50;;;;;;5089076;28;20048;-71
2023/02/09 11:32:02;;;;;;;15.95;8.07;;;1.40;73.90;;;;;;5087247;28;20078;-63
2023/02/09 11:34:53;;;;;;;14.93;7.53;;;1.40;74.30;;;;;;5085873;28;20044;-62
2023/02/09 11:37:33;;;;;;;17.73;8.65;;;1.50;74.10;;;;;;5084687;28;20068;-60
2023/02/09 11:40:12;;;;;;;18.02;8.15;;;1.50;74.00;;;;;;5087243;28;20036;-62
2023/02/09 11:42:46;;;;;;;16.38;8.15;;;1.50;74.00;;;;;;5087340;28;20071;-71
2023/02/09 11:45:19;;;;;;;15.90;8.50;;;1.50;74.30;;;;;;5087470;28;20044;-71
2023/02/09 11:47:56;;;;;;;16.15;8.13;;;1.50;74.10;;;;;;5086389;28;20059;-72
2023/02/09 11:50:30;;;;;;;18.90;9.05;;;1.60;73.90;;;;;;5087838;28;20044;-72
2023/02/09 11:53:00;;;;;;;15.73;8.77;;;1.60;73.80;;;;;;5089105;28;20054;-71
2023/02/09 11:55:29;;;;;;;;;;;1.60;73.70;;;;;;5088423;28;20076;-67
2023/02/09 11:58:06;;;;;;;17.25;8.05;;;1.60;73.30;;;;;;5087468;28;19928;-67
2023/02/09 12:00:43;;;;;;;16.73;8.95;;;1.60;73.40;;;;;;5088195;28;20446;-60
2023/02/09 12:03:13;;;;;;;18.10;9.13;;;1.70;73.30;;;;;;5086452;28;20059;-60
2023/02/09 12:05:44;;;;;;;17.50;9.52;;;1.70;73.30;;;;;;5085965;28;20122;-62
2023/02/09 12:08:28;;;;;;;;;;;1.70;73.30;;;;;;5088317;28;20052;-62
2023/02/09 12:11:07;;;;;;;15.50;7.93;;;1.70;73.20;;;;;;5088226;28;20379;-66
2023/02/09 12:13:49;;;;;;;21.27;9.52;;;1.70;73.10;;;;;;5086286;28;20048;-67
2023/02/09 12:16:20;;;;;;;18.15;8.77;;;1.70;72.80;;;;;;5087733;28;20040;-63
2023/02/09 12:18:47;;;;;;;18.85;9.32;;;1.70;72.20;;;;;;5085741;28;20059;-63
2023/02/09 12:21:27;;;;;;;18.90;10.18;;;1.70;72.80;;;;;;5086696;28;20043;-71
2023/02/09 12:23:57;;;;;;;18.25;9.75;;;1.70;72.60;;;;;;5088434;28;20471;-71
2023/02/09 12:26:38;;;;;;;20.23;8.98;;;1.70;72.70;;;;;;5086794;28;20056;-62
2023/02/09 12:29:34;;;;;;;18.90;9.35;;;1.70;72.70;;;;;;5087695;28;20067;-61
2023/02/09 12:32:29;;;;;;;16.50;8.73;;;1.70;72.60;;;;;;5087871;28;20105;-63
2023/02/09 12:34:56;;;;;;;16.67;8.95;;;1.70;72.20;;;;;;5087135;28;20048;-63
2023/02/09 12:37:27;;;;;;;15.90;8.52;;;1.80;71.90;;;;;;5085906;28;20063;-69